Impacts TAF Board INFO
FOR SITUATIONAL AWARENESS. NOT TO BE USED FOR FLIGHT PLANNING PURPOSES.
IDs:

KMSP - Minneapolis-St Paul, MN, US

Issued at 2154 UTC 13 Dec 2017
Updated at 2233 UTC 13 Dec 2017
Potential Impact None Slight Moderate High
Time2153Z 13/23Z 14/00Z 14/01Z 14/02Z 14/03Z 14/04Z 14/05Z 14/06Z 14/07Z 14/08Z 14/09Z 14/10Z 14/11Z>>
Type OBS PRVL
  [TEMP]  
PRVL
  [TEMP]  
PRVL
  [TEMP]  
PRVL PRVL PRVL PRVL PRVL PRVL PRVL PRVL PRVL PRVL
VIS 10 >6
  [5]  
>6
  [5]  
>6
  [5]  
>6 >6 >6 >6 >6 >6 >6 >6 >6 >6
CIG 22 22
  [16]  
22
  [16]  
22
  [16]  
20 20 20 20 20 20 20 20 20 15
Cover OVC OVC
  [BKN]  
OVC
  [BKN]  
OVC
  [BKN]  
OVC OVC OVC OVC OVC OVC OVC OVC OVC BKN
FltCat MVFR MVFR
  [MVFR]  
MVFR
  [MVFR]  
MVFR
  [MVFR]  
MVFR MVFR MVFR MVFR MVFR MVFR MVFR MVFR MVFR MVFR
WX -- --
  [-SN]  
--
  [-SN]  
--
  [-SN]  
-- -- -- -- -- -- -- -- -- --
WDir 340 340
[340]
340
[340]
340
[340]
320 320 320 320 320 320 320 320 320 290
WSpd 14 14
  [14]  
14
  [14]  
14
  [14]  
7 7 7 7 7 7 7 7 7 4
WGst 21 22
  [22]  
22
  [22]  
22
  [22]  
-- -- -- -- -- -- -- -- -- --

Raw TAF
KMSP 132154Z 1322/1424 34014G22KT P6SM OVC022
  TEMPO 1323/1402 5SM -SN BKN016
  FM140200 32007KT P6SM OVC020
  FM141100 29004KT P6SM BKN015
  FM142100 29005KT P6SM BKN035


Raw METAR
KMSP 132153Z 34014G21KT 10SM OVC022 M04/M08 A2972 RMK AO2 SLP076 T10441078
KMSP 132053Z 33017G24KT 9SM OVC020 M04/M08 A2968 RMK AO2 SLP060 T10441078 53033
KMSP 131953Z 33013G22KT 10SM OVC022 M04/M08 A2963 RMK AO2 PK WND 34027/1922 SLP045 T10391078

METAR Board
Radar Display
Forecast Discussion

FOR SITUATIONAL AWARENESS. NOT TO BE USED FOR FLIGHT PLANNING PURPOSES.